H.r. Morris — WCZ5434 — position and weather

sailwx.info

Track history (hours):
 
Tides and Currents Weather Stations Pressure Air Temp Water Temp Dewpoint Dewpoint Depression Visibility Wind Speed Wind Dir Waves Ship Positions

H.r. Morris

Owner: MANSON CONSTRUCTION CO., SEATTLE, WA. More information available from US FCC via Universal Licensing System and Coast Guard Vessel Documentation Center.

Last reported at 2014-Oct-22 21:34 UTC. Time now 2014-Oct-22 21:46 UTC.
Position N 34°09' W 119°14'.

; draft 4 m.

Type: Dredging. MMSI: 367421990.

Date/timePositionNaut miles runAvg speedWind from/ knotsBaromVisibWave heightAir tempDewpointWater temp
2014-Oct-22 21:34N 34°09' W 119°14'0 0.0
2014-Oct-22 20:34N 34°09' W 119°14'0 0.0
2014-Oct-22 19:34N 34°09' W 119°14'0 0.0
2014-Oct-22 17:32N 34°09' W 119°14'0 0.0
2014-Oct-22 10:07N 34°09' W 119°14'0 0.0
2014-Oct-22 09:28N 34°09' W 119°14'0 0.0
2014-Oct-22 04:25N 34°09' W 119°14'0 0.0
2014-Oct-22 03:34N 34°09' W 119°14'0 0.0
2014-Oct-22 01:11N 34°09' W 119°14'0 0.1
2014-Oct-22 00:32N 34°09' W 119°14'0 0.0
2014-Oct-21 23:31N 34°09' W 119°14'0 0.1
2014-Oct-21 22:34N 34°09' W 119°14'0 0.0
2014-Oct-21 06:05N 34°09' W 119°14'0 0.0
2014-Oct-21 01:11N 34°09' W 119°14'0 0.0
2014-Oct-20 03:32N 34°09' W 119°14'0 0.0
2014-Oct-20 02:33N 34°09' W 119°14'0 0.0
2014-Oct-20 01:32N 34°09' W 119°14'0 0.0
2014-Oct-19 01:30N 34°09' W 119°14'0 0.0
2014-Oct-19 00:31N 34°09' W 119°14'0 0.0
2014-Oct-18 23:11N 34°09' W 119°14'0 0.0
2014-Oct-18 20:28N 34°09' W 119°14'  
2014-Oct-14 05:24N 34°09' W 119°13'0 0.0
2014-Oct-14 04:33N 34°09' W 119°13'0 0.0
2014-Oct-14 02:29N 34°09' W 119°13'0 0.0
2014-Oct-14 01:17N 34°09' W 119°13'0 0.0
2014-Oct-14 00:33N 34°09' W 119°13'0 0.0
2014-Oct-13 23:16N 34°09' W 119°13'0 0.0
2014-Oct-13 20:30N 34°09' W 119°13'8 1.0
2014-Oct-13 12:25N 34°05' W 119°06'12 5.9
2014-Oct-13 10:24N 33°58' W 118°54'29 6.0
2014-Oct-13 05:33N 33°43' W 118°24'6 5.6
2014-Oct-13 04:33N 33°41' W 118°18'3 3.3
2014-Oct-13 03:33N 33°44' W 118°17'3 3.0
2014-Oct-13 02:33N 33°47' W 118°15'0 0.1
2014-Oct-13 01:33N 33°47' W 118°15'0 0.0
2014-Oct-13 00:33N 33°47' W 118°15'0 0.0
2014-Oct-12 23:33N 33°47' W 118°15'0 0.0
2014-Oct-12 22:33N 33°47' W 118°15'  
Track history (hours):
 
Tides and Currents Weather Stations Pressure Air Temp Water Temp Dewpoint Dewpoint Depression Visibility Wind Speed Wind Dir Waves Ship Positions

H.r. Morris

Owner: MANSON CONSTRUCTION CO., SEATTLE, WA. More information available from US FCC via Universal Licensing System and Coast Guard Vessel Documentation Center.

Last reported at 2014-Oct-22 21:34 UTC. Time now 2014-Oct-22 21:46 UTC.
Position N 34°09' W 119°14'.

; draft 4 m.

Type: Dredging. MMSI: 367421990.

Date/timePositionNaut miles runAvg speedWind from/ knotsBaromVisibWave heightAir tempDewpointWater temp
2014-Oct-22 21:34N 34°09' W 119°14'0 0.0
2014-Oct-22 20:34N 34°09' W 119°14'0 0.0
2014-Oct-22 19:34N 34°09' W 119°14'0 0.0
2014-Oct-22 17:32N 34°09' W 119°14'0 0.0
2014-Oct-22 10:07N 34°09' W 119°14'0 0.0
2014-Oct-22 09:28N 34°09' W 119°14'0 0.0
2014-Oct-22 04:25N 34°09' W 119°14'0 0.0
2014-Oct-22 03:34N 34°09' W 119°14'0 0.0
2014-Oct-22 01:11N 34°09' W 119°14'0 0.1
2014-Oct-22 00:32N 34°09' W 119°14'0 0.0
2014-Oct-21 23:31N 34°09' W 119°14'0 0.1
2014-Oct-21 22:34N 34°09' W 119°14'0 0.0
2014-Oct-21 06:05N 34°09' W 119°14'0 0.0
2014-Oct-21 01:11N 34°09' W 119°14'0 0.0
2014-Oct-20 03:32N 34°09' W 119°14'0 0.0
2014-Oct-20 02:33N 34°09' W 119°14'0 0.0
2014-Oct-20 01:32N 34°09' W 119°14'0 0.0
2014-Oct-19 01:30N 34°09' W 119°14'0 0.0
2014-Oct-19 00:31N 34°09' W 119°14'0 0.0
2014-Oct-18 23:11N 34°09' W 119°14'0 0.0
2014-Oct-18 20:28N 34°09' W 119°14'  
2014-Oct-14 05:24N 34°09' W 119°13'0 0.0
2014-Oct-14 04:33N 34°09' W 119°13'0 0.0
2014-Oct-14 02:29N 34°09' W 119°13'0 0.0
2014-Oct-14 01:17N 34°09' W 119°13'0 0.0
2014-Oct-14 00:33N 34°09' W 119°13'0 0.0
2014-Oct-13 23:16N 34°09' W 119°13'0 0.0
2014-Oct-13 20:30N 34°09' W 119°13'8 1.0
2014-Oct-13 12:25N 34°05' W 119°06'12 5.9
2014-Oct-13 10:24N 33°58' W 118°54'29 6.0
2014-Oct-13 05:33N 33°43' W 118°24'6 5.6
2014-Oct-13 04:33N 33°41' W 118°18'3 3.3
2014-Oct-13 03:33N 33°44' W 118°17'3 3.0
2014-Oct-13 02:33N 33°47' W 118°15'0 0.1
2014-Oct-13 01:33N 33°47' W 118°15'0 0.0
2014-Oct-13 00:33N 33°47' W 118°15'0 0.0
2014-Oct-12 23:33N 33°47' W 118°15'0 0.0
2014-Oct-12 22:33N 33°47' W 118°15'  

Dump ship's entire track history